UNTT/TOF METAR and TAF weather

Enter ICAO airport designator
Station Type Date Time Source
UNTT METAR 2019/08/19 07:30 UTC NOAA

UNTT 190730Z 19002MPS 9999 -SHRA FEW030CB 18/16 Q1014 R21/190055 NOSIG RMK QFE746


Station Type Date Time Source
UNTT Decoded METAR 2019/08/19 07:30 UTC NOAA

Station name not available
Aug 19, 2019 - 03:30 AM EDT / 2019.08.19 0730 UTC
Wind: from the S (190 degrees) at 4 MPH (4 KT):0
Visibility: greater than 7 mile(s):0
Sky conditions: mostly clear
Weather: light rain showers; Cumulonimbus clouds observed
Temperature: 64 F (18 C)
Dew Point: 60 F (16 C)
Relative Humidity: 88%
Pressure (altimeter): 29.94 in. Hg (1014 hPa)
ob: UNTT 190730Z 19002MPS 9999 -SHRA FEW030CB 18/16 Q1014 R21/190055 NOSIG RMK QFE746
cycle: 7

Station Type Date Time Source
UNTT TAF UTC NOAA

Error!

Example: see airport list